Relevés horaires Laegern (Suisse)


Relevés horaires à Laegern - Samedi 20 Févr. 2021
Heure UTC1 Température [°C] Vent [km/h] Hum. [%] Pres.4 [hPa] Visi. [Km] Nébu. [octa] Préc.5 [mm] Cond.
2m. Res. Ros. Dir.2 Vit. Moy. Raf.3
23:00 10.0 10.0 1.4 SO 0.0 -- 14.8 55 850(0.3/3h) -- -- -- --
22:00 9.0 9.0 0.5 ESE 0.0 -- 18.5 55 850(0.2/3h) -- -- -- --
21:00 9.3 9.3 1.5 ESE 0.0 -- 14.8 58 850(0.2/3h) -- -- -- --
20:00 9.3 9.3 2.8 ENE 0.0 -- 14.8 64 850(0.4/3h) -- -- -- --
19:00 10.0 10.0 3.5 SSE 0.0 -- 9.3 64 850(0.3/3h) -- -- -- --
18:00 10.2 10.2 3.3 SSO 0.0 -- 18.5 62 850(0.1/3h) -- -- -- --
17:00 10.3 10.3 3.3 SSO 0.0 -- 13.0 62 850(-0.2/3h) -- -- -- --
16:00 11.2 11.2 2.8 S 0.0 -- 14.8 56 850(-0.3/3h) -- -- -- --
15:00 11.4 11.4 2.9 SSE 0.0 -- 18.5 56 850(-0.7/3h) -- -- -- --
14:00 11.4 11.4 2.4 SSE 0.0 -- 14.8 54 850(-1.3/3h) -- -- -- --
13:00 11.0 11.0 1.8 S 0.0 -- 18.5 53 850(-1.1/3h) -- -- -- --
12:00 9.2 9.2 2.5 S 0.0 -- 24.1 63 850(-0.7/3h) -- -- -- --
11:00 7.8 7.8 3.5 S 0.0 -- 24.1 74 850(0.2/3h) -- -- -- --
10:00 6.5 6.5 4.0 SSO 0.0 -- 24.1 84 850(0.6/3h) -- -- -- --
10:00 6.5 6.5 4.0 SSO 0.0 -- 24.1 84 850(0.6/3h) -- -- -- --
09:00 5.7 5.7 4.0 SSO 0.0 -- 24.1 89 850(1.3/3h) -- -- -- --
08:00 4.9 4.9 3.6 SSO 0.0 -- 22.2 91 850(1.1/3h) -- -- -- --
07:00 5.7 5.7 3.2 SO 0.0 -- 22.2 84 850(0.8/3h) -- -- -- --
06:00 6.9 6.9 3.0 SO 0.0 -- 18.5 76 850(-0.2/3h) -- -- -- --
05:00 7.0 7.0 1.1 S 0.0 -- 18.5 66 850(-0.6/3h) -- -- -- --
04:00 6.7 6.7 -0.7 S 0.0 -- 18.5 59 850(-0.8/3h) -- -- -- --
03:00 7.1 7.1 -1.1 S 0.0 -- 16.7 56 850(-0.6/3h) -- -- -- --
02:00 7.7 7.7 -0.8 S 0.0 -- 14.8 55 850(-0.3/3h) -- -- -- --
01:00 8.1 8.1 0.3 S 0.0 -- 16.7 58 850(-0.2/3h) -- -- -- --

1 Coordinated Universal Time. Actuellement il est 15:00 locale et 13:00 UTC.

2 Le vent souffle depuis la direction indiquée vers la direction oposée.

3 Les rafales max. sont disponible 40 min après l'heure du relevé.

4 Pour les stations d'altitude (plus de 600m) le géopotentiel du niveau le plus proche de la pression obligatoire est indiqué.

5 Les stations disposant d'un diffuseur peuvent indiquer "trace". Cela signifie que des précipitations ont touchés le sol mais que la quantité est inférieure à 0.1 mm.

Copyright

Les données affichées sur cette page sont la propriété exclusive de Météo Suisse.

Récapitulatif de la journée
Température [°C] Vent [km/h] Ensoleillement4 [h] Precipitations totale5 [mm] Pression [Hpa]
Min1 Max.2 Moy.3 Max. Min Max.
6.5 11.6 0 24.1 9 h 30 min 0 850.0 850.0

1 Température minimale relevée entre 18:00 UTC la veille et 18:00 UTC le jour donné.

2 Température maximale relevée entre 06:00 UTC le jour donné et 06:00 UTC le lendemain.

3 Vent moyen de la journée basé sur les relevés horaires.

4 Ensoleillement en heures relevé entre 06:00 UTC la veille et 06:00 UTC le jour donné.

5 Précipitations totales tombées entre 06:00 UTC la jour donné et 06:00 UTC le lendemain.

Graphiques horaires